createdAt,value
2022-12-04T00:00:42.709Z,2.47
2022-12-04T00:05:20.560Z,2.52
2022-12-04T00:06:24.351Z,2.55
2022-12-04T00:09:50.827Z,2.58
2022-12-04T00:10:53.347Z,2.59
2022-12-04T00:14:21.755Z,2.62
2022-12-04T00:15:26.203Z,2.64
2022-12-04T00:16:30.107Z,2.66
2022-12-04T00:19:38.243Z,2.68
2022-12-04T00:20:41.163Z,2.68
2022-12-04T00:24:09.739Z,2.72
2022-12-04T00:25:12.431Z,2.76
2022-12-04T00:28:40.746Z,2.76
2022-12-04T00:29:43.339Z,2.73
2022-12-04T00:33:11.720Z,2.73
2022-12-04T00:34:14.695Z,2.71
2022-12-04T00:37:43.728Z,2.72
2022-12-04T00:38:47.179Z,2.70
2022-12-04T00:42:13.856Z,2.70
2022-12-04T00:43:16.755Z,2.70
2022-12-04T00:46:45.754Z,2.68
2022-12-04T00:47:48.537Z,2.68
2022-12-04T00:51:17.728Z,2.67
2022-12-04T00:52:20.275Z,2.68
2022-12-04T00:55:49.731Z,2.66
2022-12-04T00:56:52.629Z,2.64
2022-12-04T00:57:59.697Z,2.62
2022-12-04T00:59:02.951Z,2.64
2022-12-04T01:00:19.827Z,2.64
2022-12-04T01:01:23.342Z,2.64
2022-12-04T01:02:26.123Z,2.64
2022-12-04T01:05:42.718Z,2.65
2022-12-04T01:06:47.198Z,2.64
2022-12-04T01:10:05.294Z,2.65
2022-12-04T01:11:08.223Z,2.66
2022-12-04T01:14:34.827Z,2.64
2022-12-04T01:15:43.672Z,2.64
2022-12-04T01:19:09.362Z,2.65
2022-12-04T01:20:14.371Z,2.65
2022-12-04T01:23:35.901Z,2.65
2022-12-04T01:24:38.521Z,2.64
2022-12-04T01:28:07.732Z,2.65
2022-12-04T01:29:10.264Z,2.62
2022-12-04T01:32:38.734Z,2.60
2022-12-04T01:33:42.767Z,2.59
2022-12-04T01:34:45.761Z,2.49
2022-12-04T01:35:53.782Z,2.58
2022-12-04T01:37:09.803Z,2.58
2022-12-04T01:38:12.402Z,2.56
2022-12-04T01:39:15.245Z,2.54
2022-12-04T01:42:23.643Z,2.54
2022-12-04T01:43:30.185Z,2.55
2022-12-04T01:46:52.884Z,2.54
2022-12-04T01:48:02.508Z,2.56
2022-12-04T01:51:31.958Z,2.58
2022-12-04T01:52:34.826Z,2.53
2022-12-04T01:55:55.223Z,2.57
2022-12-04T02:01:18.964Z,2.57
2022-12-04T02:06:05.668Z,2.57
2022-12-04T02:07:09.251Z,2.50
2022-12-04T02:08:12.338Z,2.56
2022-12-04T02:11:46.643Z,2.57
2022-12-04T02:21:12.020Z,2.61
2022-12-04T02:27:01.292Z,2.60
2022-12-04T02:28:13.091Z,2.59
2022-12-04T02:31:31.234Z,2.58
2022-12-04T02:35:01.598Z,2.57
2022-12-04T02:36:19.633Z,2.58
2022-12-04T02:37:38.085Z,2.58
2022-12-04T02:38:44.592Z,2.58
2022-12-04T02:40:09.648Z,2.57
2022-12-04T02:41:52.614Z,2.59
2022-12-04T02:43:07.193Z,2.60
2022-12-04T02:44:15.500Z,2.61
2022-12-04T02:45:26.302Z,2.60
2022-12-04T02:46:35.626Z,2.62
2022-12-04T02:47:41.356Z,2.61
2022-12-04T02:48:49.412Z,2.64
2022-12-04T02:50:05.425Z,2.63
2022-12-04T02:51:11.855Z,2.63
2022-12-04T02:52:20.825Z,2.63
2022-12-04T02:53:28.667Z,2.64
2022-12-04T02:54:39.483Z,2.63
2022-12-04T02:55:46.446Z,2.64
2022-12-04T02:56:51.123Z,2.61
2022-12-04T02:57:59.579Z,2.67
2022-12-04T02:59:08.547Z,2.65
2022-12-04T03:00:11.900Z,2.67
2022-12-04T03:01:21.000Z,2.68
2022-12-04T03:02:53.591Z,2.66
2022-12-04T03:03:56.571Z,2.66
2022-12-04T03:05:02.134Z,2.66
2022-12-04T03:06:10.473Z,2.61
2022-12-04T03:07:18.161Z,2.65
2022-12-04T03:08:26.337Z,2.65
2022-12-04T03:09:58.883Z,2.63
2022-12-04T03:11:02.392Z,2.60
2022-12-04T03:12:19.312Z,2.61
2022-12-04T03:13:29.149Z,2.60
2022-12-04T03:14:38.158Z,2.61
2022-12-04T03:15:49.454Z,2.57
2022-12-04T03:16:57.840Z,2.58
2022-12-04T03:18:05.495Z,2.55
2022-12-04T03:19:15.489Z,2.53
2022-12-04T03:20:20.020Z,2.54
2022-12-04T03:21:28.167Z,2.52
2022-12-04T03:22:33.762Z,2.46
2022-12-04T03:23:44.404Z,2.50
2022-12-04T03:24:55.575Z,2.42
2022-12-04T03:26:01.762Z,2.48
2022-12-04T03:27:23.409Z,2.47
2022-12-04T03:28:34.613Z,2.46
2022-12-04T03:30:01.676Z,2.45
2022-12-04T03:31:09.873Z,2.41
2022-12-04T03:32:17.986Z,2.41
2022-12-04T03:33:28.884Z,2.35
2022-12-04T03:34:48.545Z,2.37
2022-12-04T03:36:05.397Z,2.36
2022-12-04T03:37:14.874Z,2.34
2022-12-04T03:38:54.356Z,2.28
2022-12-04T03:40:27.666Z,2.31
2022-12-04T03:41:52.644Z,2.29
2022-12-04T03:43:03.769Z,2.27
2022-12-04T03:44:23.771Z,2.26
2022-12-04T03:45:38.235Z,2.22
2022-12-04T03:46:54.616Z,2.22
2022-12-04T03:48:06.278Z,2.25
2022-12-04T03:49:17.463Z,2.23
2022-12-04T03:50:41.983Z,2.24
2022-12-04T03:52:08.582Z,2.23
2022-12-04T03:53:17.240Z,2.23
2022-12-04T03:54:44.745Z,2.24
2022-12-04T03:55:54.661Z,2.23
2022-12-04T03:57:03.278Z,2.24
2022-12-04T03:58:10.353Z,2.26
2022-12-04T03:59:23.877Z,2.25
2022-12-04T04:00:29.256Z,2.26
2022-12-04T04:01:41.841Z,2.21
2022-12-04T04:02:58.543Z,2.24
2022-12-04T04:04:05.319Z,2.25
2022-12-04T04:05:13.353Z,2.25
2022-12-04T04:06:22.661Z,2.23
2022-12-04T04:07:44.250Z,2.24
2022-12-04T04:08:52.369Z,2.24
2022-12-04T04:10:00.705Z,2.20
2022-12-04T04:11:18.703Z,2.24
2022-12-04T04:12:25.980Z,2.25
2022-12-04T04:14:03.210Z,2.25
2022-12-04T04:15:32.948Z,2.25
2022-12-04T04:16:57.922Z,2.25
2022-12-04T04:18:20.748Z,2.24
2022-12-04T04:19:47.023Z,2.23
2022-12-04T04:21:16.865Z,2.21
2022-12-04T04:22:39.874Z,1.86
2022-12-04T04:24:08.802Z,2.16
2022-12-04T04:25:16.375Z,2.18
2022-12-04T04:26:19.158Z,2.16
2022-12-04T04:27:21.853Z,2.15
2022-12-04T04:28:50.642Z,2.15
2022-12-04T04:29:53.442Z,2.14
2022-12-04T04:31:13.287Z,2.15
2022-12-04T04:32:57.519Z,2.12
2022-12-04T04:34:13.888Z,2.10
2022-12-04T04:35:47.416Z,2.09
2022-12-04T04:37:02.091Z,2.07
2022-12-04T04:38:16.864Z,2.06
2022-12-04T04:39:55.277Z,2.04
2022-12-04T04:41:20.917Z,2.03
2022-12-04T04:42:37.549Z,2.01
2022-12-04T04:43:54.278Z,1.99
2022-12-04T04:45:09.092Z,1.99
2022-12-04T04:46:25.382Z,1.98
2022-12-04T04:47:37.654Z,1.96
2022-12-04T04:48:47.586Z,1.93
2022-12-04T04:49:53.973Z,1.94
2022-12-04T04:51:00.048Z,1.88
2022-12-04T04:52:03.521Z,1.91
2022-12-04T04:53:13.781Z,1.91
2022-12-04T04:54:17.897Z,1.92
2022-12-04T04:55:22.293Z,1.86
2022-12-04T04:56:25.601Z,1.84
2022-12-04T04:57:32.137Z,1.89
2022-12-04T04:58:35.122Z,1.87
2022-12-04T04:59:37.820Z,1.87
2022-12-04T05:00:45.248Z,1.83
2022-12-04T05:01:48.165Z,1.86
2022-12-04T05:02:50.855Z,1.86
2022-12-04T05:03:54.083Z,1.87
2022-12-04T05:04:56.683Z,1.83
2022-12-04T05:05:59.669Z,1.89
2022-12-04T05:07:02.634Z,1.89
2022-12-04T05:08:05.675Z,1.89
2022-12-04T05:09:08.666Z,1.89
2022-12-04T05:10:11.894Z,1.90
2022-12-04T05:11:15.850Z,1.92
2022-12-04T05:12:18.480Z,1.90
2022-12-04T05:13:21.941Z,1.93
2022-12-04T05:14:24.849Z,1.92
2022-12-04T05:15:27.771Z,1.94
2022-12-04T05:16:30.466Z,1.94
2022-12-04T05:17:35.508Z,1.95
2022-12-04T05:18:38.932Z,1.91
2022-12-04T05:19:54.487Z,1.95
2022-12-04T05:20:57.495Z,1.96
2022-12-04T05:22:00.135Z,1.96
2022-12-04T05:23:02.696Z,1.97
2022-12-04T05:24:05.564Z,1.98
2022-12-04T05:25:08.979Z,1.95
2022-12-04T05:26:11.699Z,1.94
2022-12-04T05:27:14.459Z,1.94
2022-12-04T05:28:17.576Z,1.93
2022-12-04T05:29:20.164Z,1.93
2022-12-04T05:30:23.057Z,1.90
2022-12-04T05:31:25.676Z,1.90
2022-12-04T05:32:29.832Z,1.89
2022-12-04T05:33:32.446Z,1.88
2022-12-04T05:34:35.009Z,1.88
2022-12-04T05:35:37.833Z,1.89
2022-12-04T05:36:40.713Z,1.89
2022-12-04T05:37:43.460Z,1.88
2022-12-04T05:38:45.973Z,1.88
2022-12-04T05:39:48.993Z,1.88
2022-12-04T05:40:51.822Z,1.83
2022-12-04T05:41:54.429Z,1.86
2022-12-04T05:42:57.428Z,1.86
2022-12-04T05:44:00.049Z,1.81
2022-12-04T05:45:02.754Z,1.87
2022-12-04T05:46:07.862Z,1.86
2022-12-04T05:47:11.172Z,1.85
2022-12-04T05:48:14.354Z,1.85
2022-12-04T05:49:18.912Z,1.85
2022-12-04T05:50:23.797Z,1.85
2022-12-04T05:51:26.729Z,1.86
2022-12-04T05:52:33.181Z,1.87
2022-12-04T05:53:36.597Z,1.86
2022-12-04T05:54:39.317Z,1.87
2022-12-04T05:55:41.855Z,1.86
2022-12-04T05:56:45.481Z,1.87
2022-12-04T05:57:48.078Z,1.86
2022-12-04T05:58:50.843Z,1.88
2022-12-04T05:59:53.731Z,1.88
2022-12-04T06:00:56.560Z,1.87
2022-12-04T06:01:59.412Z,1.88
2022-12-04T06:03:02.056Z,1.86
2022-12-04T06:04:04.876Z,1.79
2022-12-04T06:05:08.015Z,1.88
2022-12-04T06:06:19.257Z,1.88
2022-12-04T06:07:24.087Z,1.88
2022-12-04T06:08:26.624Z,1.90
2022-12-04T06:09:29.228Z,1.86
2022-12-04T06:10:34.223Z,1.90
2022-12-04T06:11:38.615Z,1.90
2022-12-04T06:12:41.527Z,1.90
2022-12-04T06:13:45.667Z,1.90
2022-12-04T06:14:48.220Z,1.93
2022-12-04T06:15:50.903Z,1.90
2022-12-04T06:16:54.306Z,1.93
2022-12-04T06:17:57.227Z,1.93
2022-12-04T06:19:02.769Z,1.94
2022-12-04T06:20:11.267Z,1.95
2022-12-04T06:21:14.375Z,1.96
2022-12-04T06:22:16.894Z,1.98
2022-12-04T06:23:19.764Z,1.99
2022-12-04T06:24:24.815Z,2.00
2022-12-04T06:25:27.936Z,2.00
2022-12-04T06:26:31.432Z,2.01
2022-12-04T06:27:34.391Z,2.02
2022-12-04T06:28:38.092Z,1.99
2022-12-04T06:29:40.666Z,2.03
2022-12-04T06:30:43.295Z,2.05
2022-12-04T06:31:45.997Z,2.04
2022-12-04T06:32:48.659Z,2.05
2022-12-04T06:33:54.884Z,2.08
2022-12-04T06:34:57.509Z,2.09
2022-12-04T06:36:15.113Z,2.04
2022-12-04T06:37:17.778Z,2.10
2022-12-04T06:38:26.919Z,2.14
2022-12-04T06:39:33.653Z,2.10
2022-12-04T06:40:40.164Z,2.14
2022-12-04T06:41:43.180Z,2.14
2022-12-04T06:42:46.073Z,2.09
2022-12-04T06:43:49.197Z,2.14
2022-12-04T06:44:52.237Z,2.14
2022-12-04T06:46:10.489Z,2.15
2022-12-04T06:47:13.230Z,2.14
2022-12-04T06:48:16.156Z,2.15
2022-12-04T06:49:22.696Z,2.16
2022-12-04T06:50:25.574Z,2.16
2022-12-04T06:51:33.742Z,2.16
2022-12-04T06:52:36.277Z,2.18
2022-12-04T06:53:38.955Z,2.18
2022-12-04T06:54:41.559Z,2.20
2022-12-04T06:55:48.914Z,2.22
2022-12-04T06:56:51.625Z,2.22
2022-12-04T06:57:54.465Z,2.23
2022-12-04T06:58:59.440Z,2.22
2022-12-04T07:00:02.004Z,2.24
2022-12-04T07:01:10.541Z,2.25
2022-12-04T07:02:13.407Z,2.27
2022-12-04T07:03:16.214Z,2.29
2022-12-04T07:04:19.042Z,2.30
2022-12-04T07:05:21.813Z,2.34
2022-12-04T07:06:27.609Z,2.39
2022-12-04T07:07:31.135Z,2.41
2022-12-04T07:08:33.789Z,2.42
2022-12-04T07:09:37.031Z,2.44
2022-12-04T07:10:40.596Z,2.48
2022-12-04T07:11:44.614Z,2.48
2022-12-04T07:12:47.178Z,2.49
2022-12-04T07:13:51.153Z,2.52
2022-12-04T07:14:53.660Z,2.54
2022-12-04T07:15:56.242Z,2.56
2022-12-04T07:16:59.298Z,2.59
2022-12-04T07:18:02.292Z,2.61
2022-12-04T07:19:04.943Z,2.64
2022-12-04T07:20:08.624Z,2.65
2022-12-04T07:21:14.995Z,2.68
2022-12-04T07:22:17.923Z,2.38
2022-12-04T07:23:20.698Z,2.72
2022-12-04T07:24:23.265Z,2.78
2022-12-04T07:25:25.867Z,2.80
2022-12-04T07:26:30.583Z,2.81
2022-12-04T07:27:33.580Z,2.85
2022-12-04T07:28:37.016Z,2.86
2022-12-04T07:29:39.625Z,2.87
2022-12-04T07:30:42.445Z,2.92
2022-12-04T07:31:45.327Z,2.93
2022-12-04T07:32:48.936Z,2.95
2022-12-04T07:33:53.945Z,2.95
2022-12-04T07:34:56.879Z,3.00
2022-12-04T07:36:01.683Z,3.03
2022-12-04T07:37:04.652Z,3.04
2022-12-04T07:38:07.873Z,3.06
2022-12-04T07:39:10.519Z,3.09
2022-12-04T07:40:13.877Z,3.09
2022-12-04T07:41:17.201Z,3.11
2022-12-04T07:42:24.096Z,3.08
2022-12-04T07:43:29.292Z,3.14
2022-12-04T07:44:32.313Z,3.15
2022-12-04T07:45:36.989Z,3.17
2022-12-04T07:46:39.615Z,3.18
2022-12-04T07:47:42.299Z,3.21
2022-12-04T07:48:45.321Z,3.23
2022-12-04T07:49:48.155Z,3.25
2022-12-04T07:50:51.002Z,3.29
2022-12-04T07:51:53.764Z,3.30
2022-12-04T07:53:00.280Z,3.31
2022-12-04T07:54:04.349Z,3.36
2022-12-04T07:55:08.004Z,3.38
2022-12-04T07:56:12.154Z,3.35
2022-12-04T07:57:14.741Z,3.38
2022-12-04T07:58:18.535Z,3.42
2022-12-04T07:59:21.671Z,3.47
2022-12-04T08:00:24.173Z,3.47
2022-12-04T08:01:27.185Z,3.52
2022-12-04T08:02:29.926Z,3.54
2022-12-04T08:03:32.552Z,3.55
2022-12-04T08:04:36.594Z,3.29
2022-12-04T08:05:39.162Z,3.58
2022-12-04T08:06:42.048Z,3.56
2022-12-04T08:07:47.215Z,3.58
2022-12-04T08:08:50.715Z,3.52
2022-12-04T08:09:53.426Z,3.60
2022-12-04T08:10:56.626Z,3.66
2022-12-04T08:12:02.703Z,3.70
2022-12-04T08:13:05.444Z,3.74
2022-12-04T08:14:11.740Z,3.80
2022-12-04T08:15:14.306Z,3.82
2022-12-04T08:16:17.157Z,3.84
2022-12-04T08:17:20.537Z,3.88
2022-12-04T08:18:23.202Z,3.92
2022-12-04T08:19:26.606Z,3.93
2022-12-04T08:20:29.195Z,3.96
2022-12-04T08:21:32.865Z,3.99
2022-12-04T08:22:36.246Z,4.06
2022-12-04T08:23:40.095Z,4.10
2022-12-04T08:24:42.946Z,4.11
2022-12-04T08:25:46.121Z,4.18
2022-12-04T08:26:50.845Z,4.23
2022-12-04T08:27:55.816Z,4.27
2022-12-04T08:28:59.160Z,4.32
2022-12-04T08:30:01.884Z,4.33
2022-12-04T08:31:25.905Z,4.32
2022-12-04T08:32:28.509Z,4.32
2022-12-04T08:33:32.146Z,4.39
2022-12-04T08:34:34.870Z,4.41
2022-12-04T08:35:37.455Z,4.35
2022-12-04T08:36:40.152Z,4.34
2022-12-04T08:37:42.827Z,4.36
2022-12-04T08:38:47.090Z,4.33
2022-12-04T08:39:49.784Z,4.37
2022-12-04T08:40:52.397Z,4.36
2022-12-04T08:41:57.115Z,4.37
2022-12-04T08:43:00.149Z,4.38
2022-12-04T08:44:03.167Z,4.39
2022-12-04T08:45:06.444Z,4.43
2022-12-04T08:46:12.047Z,4.50
2022-12-04T08:47:15.034Z,4.51
2022-12-04T08:48:18.062Z,4.50
2022-12-04T08:49:20.901Z,4.50
2022-12-04T08:51:45.503Z,4.51
2022-12-04T08:52:49.095Z,4.50
2022-12-04T08:53:56.511Z,4.46
2022-12-04T08:54:59.577Z,4.56
2022-12-04T08:56:02.251Z,4.59
2022-12-04T08:57:04.984Z,4.67
2022-12-04T08:58:08.630Z,4.66
2022-12-04T08:59:13.790Z,4.72
2022-12-04T09:00:17.751Z,4.79
2022-12-04T09:01:20.753Z,4.80
2022-12-04T09:02:24.104Z,4.82
2022-12-04T09:03:30.875Z,4.85
2022-12-04T09:04:38.005Z,4.88
2022-12-04T09:05:41.971Z,4.80
2022-12-04T09:06:48.224Z,4.78
2022-12-04T09:07:51.637Z,4.76
2022-12-04T09:08:56.250Z,4.75
2022-12-04T09:09:59.755Z,4.71
2022-12-04T09:11:05.892Z,4.70
2022-12-04T09:12:11.435Z,4.73
2022-12-04T09:13:14.435Z,4.77
2022-12-04T09:14:19.467Z,4.78
2022-12-04T09:15:22.522Z,4.85
2022-12-04T09:16:26.688Z,4.94
2022-12-04T09:17:29.833Z,4.99
2022-12-04T09:18:34.220Z,5.05
2022-12-04T09:19:41.421Z,5.06
2022-12-04T09:20:44.406Z,5.08
2022-12-04T09:21:48.153Z,4.97
2022-12-04T09:23:03.815Z,4.94
2022-12-04T09:24:08.746Z,5.00
2022-12-04T09:25:12.472Z,4.98
2022-12-04T09:26:28.999Z,4.96
2022-12-04T09:27:38.052Z,4.99
2022-12-04T09:28:49.157Z,5.02
2022-12-04T09:29:58.719Z,4.96
2022-12-04T09:31:06.247Z,5.13
2022-12-04T09:32:09.040Z,5.12
2022-12-04T09:33:12.786Z,5.16
2022-12-04T09:34:16.275Z,5.25
2022-12-04T09:35:19.445Z,5.42
2022-12-04T09:36:22.864Z,5.68
2022-12-04T09:37:26.113Z,5.99
2022-12-04T09:38:30.858Z,6.26
2022-12-04T09:39:33.683Z,6.48
2022-12-04T09:40:45.293Z,6.83
2022-12-04T09:42:06.980Z,6.97
2022-12-04T09:43:31.660Z,7.40
2022-12-04T09:44:46.030Z,7.69
2022-12-04T09:45:59.414Z,7.87
2022-12-04T09:47:09.144Z,8.18
2022-12-04T09:48:13.367Z,8.32
2022-12-04T09:49:23.626Z,8.38
2022-12-04T09:50:41.532Z,8.81
2022-12-04T09:51:45.708Z,8.82
2022-12-04T09:53:06.437Z,9.11
2022-12-04T09:54:23.843Z,8.97
2022-12-04T09:55:36.871Z,9.07
2022-12-04T09:56:41.610Z,9.29
2022-12-04T09:57:50.630Z,9.37
2022-12-04T09:59:00.459Z,9.45
2022-12-04T10:00:05.958Z,9.46
2022-12-04T10:01:33.712Z,9.59
2022-12-04T10:02:42.641Z,9.67
2022-12-04T10:03:45.892Z,9.72
2022-12-04T10:04:49.102Z,9.61
2022-12-04T10:06:06.137Z,9.60
2022-12-04T10:07:20.206Z,9.86
2022-12-04T10:08:35.013Z,9.89
2022-12-04T10:10:01.284Z,9.48
2022-12-04T10:11:16.588Z,9.12
2022-12-04T10:13:18.339Z,8.78
2022-12-04T10:14:37.541Z,8.55
2022-12-04T10:15:49.631Z,8.21
2022-12-04T10:17:21.608Z,7.87
2022-12-04T10:18:40.125Z,7.32
2022-12-04T10:19:53.500Z,7.14
2022-12-04T10:21:11.888Z,7.34
2022-12-04T10:23:13.505Z,7.37
2022-12-04T10:24:41.700Z,7.34
2022-12-04T10:25:44.930Z,7.32
2022-12-04T10:26:48.989Z,7.24
2022-12-04T10:28:01.650Z,7.35
2022-12-04T10:29:08.971Z,7.35
2022-12-04T10:30:22.958Z,7.35
2022-12-04T10:31:28.382Z,7.62
2022-12-04T10:32:35.359Z,7.76
2022-12-04T10:33:43.899Z,7.79
2022-12-04T10:34:50.926Z,7.88
2022-12-04T10:35:54.803Z,7.85
2022-12-04T10:37:09.617Z,8.00
2022-12-04T10:38:44.571Z,7.81
2022-12-04T10:40:08.181Z,7.55
2022-12-04T10:41:20.967Z,7.67
2022-12-04T10:42:42.285Z,7.69
2022-12-04T10:43:50.505Z,8.04
2022-12-04T10:44:54.273Z,8.32
2022-12-04T10:45:57.214Z,8.22
2022-12-04T10:47:02.982Z,8.43
2022-12-04T10:48:08.368Z,8.35
2022-12-04T10:49:22.968Z,8.30
2022-12-04T10:50:46.297Z,8.07
2022-12-04T10:51:58.281Z,8.04
2022-12-04T10:53:08.263Z,8.12
2022-12-04T10:54:35.861Z,8.16
2022-12-04T10:55:40.170Z,8.54
2022-12-04T10:56:55.882Z,8.78
2022-12-04T10:57:58.881Z,8.91
2022-12-04T10:59:03.448Z,8.91
2022-12-04T11:00:27.200Z,8.72
2022-12-04T11:01:32.612Z,8.41
2022-12-04T11:02:38.098Z,8.23
2022-12-04T11:03:44.286Z,8.04
2022-12-04T11:04:58.812Z,8.20
2022-12-04T11:06:04.998Z,7.85
2022-12-04T11:07:20.398Z,7.62
2022-12-04T11:08:27.065Z,7.64
2022-12-04T11:09:30.468Z,7.25
2022-12-04T11:10:38.440Z,7.27
2022-12-04T11:11:41.583Z,7.21
2022-12-04T11:13:04.372Z,7.27
2022-12-04T11:14:15.313Z,7.19
2022-12-04T11:15:18.002Z,7.04
2022-12-04T11:16:35.275Z,7.01
2022-12-04T11:17:44.184Z,7.08
2022-12-04T11:18:50.562Z,7.22
2022-12-04T11:20:09.108Z,7.38
2022-12-04T11:21:19.661Z,7.46
2022-12-04T11:22:22.870Z,7.66
2022-12-04T11:23:30.556Z,7.48
2022-12-04T11:24:36.857Z,7.12
2022-12-04T11:25:47.325Z,7.19
2022-12-04T11:26:52.248Z,7.28
2022-12-04T11:27:59.626Z,7.19
2022-12-04T11:29:05.356Z,7.35
2022-12-04T11:30:15.903Z,7.14
2022-12-04T11:31:22.467Z,7.25
2022-12-04T11:32:34.523Z,7.22
2022-12-04T11:34:15.560Z,7.24
2022-12-04T11:35:25.097Z,6.82
2022-12-04T11:36:32.451Z,6.91
2022-12-04T11:37:38.208Z,6.95
2022-12-04T11:38:45.729Z,6.79
2022-12-04T11:39:49.503Z,7.16
2022-12-04T11:40:56.978Z,7.03
2022-12-04T11:42:21.516Z,7.03
2022-12-04T11:43:31.895Z,7.09
2022-12-04T11:44:36.697Z,7.05
2022-12-04T11:45:40.355Z,6.99
2022-12-04T11:46:53.970Z,6.90
2022-12-04T11:47:59.923Z,7.08
2022-12-04T11:49:08.196Z,7.12
2022-12-04T11:50:18.209Z,7.17
2022-12-04T11:51:34.464Z,7.24
2022-12-04T11:53:19.776Z,7.24
2022-12-04T11:54:41.135Z,7.52
2022-12-04T11:55:49.163Z,7.71
2022-12-04T11:57:20.875Z,7.76
2022-12-04T11:58:35.870Z,8.04
2022-12-04T12:00:04.225Z,8.01
2022-12-04T12:01:17.861Z,7.92
2022-12-04T12:02:42.863Z,7.96
2022-12-04T12:03:57.440Z,7.97
2022-12-04T12:05:17.164Z,8.06
2022-12-04T12:06:35.434Z,8.12
2022-12-04T12:07:43.294Z,8.16
2022-12-04T12:08:54.948Z,8.14
2022-12-04T12:10:28.623Z,8.10
2022-12-04T12:11:53.135Z,8.18
2022-12-04T12:13:17.644Z,8.19
2022-12-04T12:14:33.629Z,8.14
2022-12-04T12:15:54.395Z,8.12
2022-12-04T12:17:15.690Z,8.12
2022-12-04T12:18:51.455Z,8.04
2022-12-04T12:20:25.272Z,7.94
2022-12-04T12:21:39.477Z,8.03
2022-12-04T12:23:40.712Z,8.07
2022-12-04T12:25:19.105Z,8.01
2022-12-04T12:26:28.095Z,7.98
2022-12-04T12:27:52.172Z,7.78
2022-12-04T12:29:14.561Z,7.85
2022-12-04T12:30:22.519Z,8.01
2022-12-04T12:31:35.008Z,8.03
2022-12-04T12:33:10.432Z,8.16
2022-12-04T12:34:27.119Z,8.10
2022-12-04T12:35:32.241Z,8.05
2022-12-04T12:36:43.707Z,7.90
2022-12-04T12:37:53.263Z,7.83
2022-12-04T12:39:02.168Z,7.87
2022-12-04T12:40:21.731Z,7.94
2022-12-04T12:41:39.122Z,7.93
2022-12-04T12:42:58.229Z,7.90
2022-12-04T12:44:06.232Z,7.88
2022-12-04T12:45:30.694Z,7.94
2022-12-04T12:46:44.602Z,7.88
2022-12-04T12:47:52.559Z,7.84
2022-12-04T12:48:58.846Z,7.89
2022-12-04T12:50:10.518Z,7.91
2022-12-04T12:51:35.296Z,7.90
2022-12-04T12:52:49.770Z,7.81
2022-12-04T12:53:58.412Z,7.85
2022-12-04T12:55:14.649Z,7.93
2022-12-04T12:56:20.396Z,8.04
2022-12-04T12:57:32.029Z,7.93
2022-12-04T12:58:40.654Z,7.81
2022-12-04T12:59:49.183Z,7.81
2022-12-04T13:01:08.434Z,7.58
2022-12-04T13:02:44.540Z,7.67
2022-12-04T13:04:03.273Z,7.50
2022-12-04T13:05:11.173Z,7.53
2022-12-04T13:06:19.269Z,7.51
2022-12-04T13:07:58.702Z,7.47
2022-12-04T13:09:13.951Z,7.46
2022-12-04T13:10:22.119Z,7.42
2022-12-04T13:11:28.520Z,7.34
2022-12-04T13:12:49.250Z,7.25
2022-12-04T13:13:58.720Z,7.19
2022-12-04T13:15:01.790Z,7.06
2022-12-04T13:16:21.237Z,7.04
2022-12-04T13:17:33.608Z,7.06
2022-12-04T13:18:45.787Z,6.95
2022-12-04T13:19:53.932Z,6.90
2022-12-04T13:21:00.814Z,6.93
2022-12-04T13:22:34.841Z,6.93
2022-12-04T13:23:50.653Z,6.86
2022-12-04T13:24:59.056Z,6.91
2022-12-04T13:26:16.186Z,6.90
2022-12-04T13:27:34.779Z,6.80
2022-12-04T13:28:40.143Z,6.74
2022-12-04T13:29:54.787Z,6.68
2022-12-04T13:31:11.483Z,6.63
2022-12-04T13:32:41.827Z,6.61
2022-12-04T13:33:44.375Z,6.53
2022-12-04T13:35:07.247Z,6.54
2022-12-04T13:36:36.644Z,6.50
2022-12-04T13:37:57.799Z,6.45
2022-12-04T13:39:38.033Z,6.44
2022-12-04T13:40:44.945Z,6.37
2022-12-04T13:41:56.250Z,6.33
2022-12-04T13:43:17.886Z,6.29
2022-12-04T13:44:24.608Z,6.27
2022-12-04T13:45:32.439Z,6.22
2022-12-04T13:46:39.492Z,6.22
2022-12-04T13:47:42.269Z,6.15
2022-12-04T13:48:45.394Z,6.14
2022-12-04T13:49:48.276Z,6.11
2022-12-04T13:51:20.773Z,6.08
2022-12-04T13:52:36.689Z,6.06
2022-12-04T13:53:40.487Z,6.02
2022-12-04T13:54:43.387Z,6.00
2022-12-04T13:55:56.361Z,5.97
2022-12-04T13:57:17.451Z,5.94
2022-12-04T13:58:20.048Z,5.91
2022-12-04T13:59:28.621Z,5.87
2022-12-04T14:00:35.057Z,5.86
2022-12-04T14:01:41.020Z,5.85
2022-12-04T14:02:51.806Z,5.81
2022-12-04T14:03:57.459Z,5.76
2022-12-04T14:05:04.684Z,5.76
2022-12-04T14:06:24.615Z,5.71
2022-12-04T14:07:33.862Z,5.69
2022-12-04T14:08:40.584Z,5.67
2022-12-04T14:09:54.239Z,5.64
2022-12-04T14:10:59.018Z,5.60
2022-12-04T14:12:05.955Z,5.59
2022-12-04T14:13:20.045Z,5.57
2022-12-04T14:14:38.795Z,5.51
2022-12-04T14:15:41.786Z,5.48
2022-12-04T14:16:49.479Z,5.44
2022-12-04T14:18:14.797Z,5.41
2022-12-04T14:19:35.426Z,5.40
2022-12-04T14:20:39.214Z,5.36
2022-12-04T14:21:48.406Z,5.32
2022-12-04T14:22:51.139Z,5.31
2022-12-04T14:23:54.199Z,5.27
2022-12-04T14:25:14.251Z,5.25
2022-12-04T14:26:19.885Z,5.21
2022-12-04T14:27:42.716Z,5.20
2022-12-04T14:28:45.915Z,5.17
2022-12-04T14:29:56.720Z,5.13
2022-12-04T14:31:05.694Z,5.12
2022-12-04T14:32:17.263Z,5.09
2022-12-04T14:33:22.883Z,5.05
2022-12-04T14:34:36.376Z,5.05
2022-12-04T14:35:53.212Z,5.02
2022-12-04T14:36:58.405Z,4.98
2022-12-04T14:38:04.656Z,4.97
2022-12-04T14:39:23.613Z,4.94
2022-12-04T14:40:33.730Z,4.91
2022-12-04T14:41:36.523Z,4.88
2022-12-04T14:42:40.934Z,4.86
2022-12-04T14:43:45.824Z,4.84
2022-12-04T14:45:03.271Z,4.82
2022-12-04T14:46:26.638Z,4.80
2022-12-04T14:47:58.985Z,4.49
2022-12-04T14:49:13.418Z,4.72
2022-12-04T14:50:44.966Z,4.73
2022-12-04T14:52:02.074Z,4.72
2022-12-04T14:53:19.630Z,4.69
2022-12-04T14:54:30.857Z,4.67
2022-12-04T14:56:13.814Z,4.67
2022-12-04T14:57:54.422Z,4.65
2022-12-04T14:58:59.393Z,4.60
2022-12-04T15:00:03.089Z,4.57
2022-12-04T15:01:29.727Z,4.58
2022-12-04T15:02:40.051Z,4.54
2022-12-04T15:03:49.633Z,4.52
2022-12-04T15:04:53.711Z,4.50
2022-12-04T15:06:07.312Z,4.47
2022-12-04T15:07:11.162Z,4.44
2022-12-04T15:08:14.742Z,4.43
2022-12-04T15:09:38.139Z,4.39
2022-12-04T15:11:06.936Z,4.41
2022-12-04T15:12:35.913Z,4.41
2022-12-04T15:13:39.503Z,4.39
2022-12-04T15:14:46.630Z,4.38
2022-12-04T15:15:50.295Z,4.37
2022-12-04T15:17:04.072Z,4.37
2022-12-04T15:18:10.616Z,4.30
2022-12-04T15:19:18.325Z,4.34
2022-12-04T15:20:22.089Z,4.34
2022-12-04T15:21:34.998Z,4.34
2022-12-04T15:22:39.074Z,4.32
2022-12-04T15:23:43.272Z,4.31
2022-12-04T15:24:46.469Z,4.25
2022-12-04T15:25:55.618Z,4.28
2022-12-04T15:26:59.289Z,4.27
2022-12-04T15:28:28.151Z,4.23
2022-12-04T15:29:35.507Z,4.23
2022-12-04T15:30:42.316Z,4.23
2022-12-04T15:31:53.887Z,4.22
2022-12-04T15:32:57.459Z,4.20
2022-12-04T15:34:03.876Z,4.14
2022-12-04T15:35:17.147Z,4.15
2022-12-04T15:36:28.581Z,4.14
2022-12-04T15:37:33.291Z,4.11
2022-12-04T15:38:37.307Z,4.09
2022-12-04T15:39:41.189Z,4.08
2022-12-04T15:40:59.720Z,4.05
2022-12-04T15:42:28.619Z,4.01
2022-12-04T15:43:33.036Z,3.98
2022-12-04T15:44:36.841Z,3.95
2022-12-04T15:45:41.427Z,3.91
2022-12-04T15:46:45.514Z,3.86
2022-12-04T15:47:54.864Z,3.83
2022-12-04T15:49:16.260Z,3.82
2022-12-04T15:50:19.588Z,3.80
2022-12-04T15:51:23.178Z,3.78
2022-12-04T15:52:26.246Z,3.77
2022-12-04T15:53:37.313Z,3.76
2022-12-04T15:54:44.865Z,3.73
2022-12-04T15:55:56.992Z,3.68
2022-12-04T15:57:00.107Z,3.59
2022-12-04T15:58:07.214Z,3.54
2022-12-04T15:59:18.737Z,3.50
2022-12-04T16:00:21.848Z,3.43
2022-12-04T16:01:25.545Z,3.38
2022-12-04T16:02:35.055Z,3.37
2022-12-04T16:03:48.181Z,3.39
2022-12-04T16:04:51.352Z,3.37
2022-12-04T16:06:29.219Z,3.35
2022-12-04T16:07:33.238Z,3.38
2022-12-04T16:08:40.748Z,3.37
2022-12-04T16:09:52.684Z,3.33
2022-12-04T16:11:07.400Z,3.35
2022-12-04T16:12:19.862Z,3.34
2022-12-04T16:13:32.735Z,3.39
2022-12-04T16:14:35.408Z,3.38
2022-12-04T16:15:42.418Z,3.37
2022-12-04T16:16:48.769Z,3.37
2022-12-04T16:17:52.670Z,3.37
2022-12-04T16:18:58.463Z,3.35
2022-12-04T16:20:05.759Z,3.34
2022-12-04T16:21:17.172Z,3.33
2022-12-04T16:22:23.970Z,3.32
2022-12-04T16:23:27.742Z,3.24
2022-12-04T16:24:31.581Z,3.34
2022-12-04T16:25:35.258Z,3.35
2022-12-04T16:26:38.436Z,3.31
2022-12-04T16:27:41.580Z,3.25
2022-12-04T16:28:45.324Z,3.21
2022-12-04T16:29:50.797Z,3.18
2022-12-04T16:30:55.961Z,3.12
2022-12-04T16:32:03.576Z,3.15
2022-12-04T16:33:06.937Z,3.15
2022-12-04T16:34:12.578Z,3.19
2022-12-04T16:35:19.074Z,3.18
2022-12-04T16:36:25.595Z,3.18
2022-12-04T16:37:30.522Z,3.22
2022-12-04T16:38:34.467Z,3.24
2022-12-04T16:39:41.305Z,3.21
2022-12-04T16:40:46.375Z,3.22
2022-12-04T16:41:49.564Z,3.19
2022-12-04T16:42:52.782Z,3.17
2022-12-04T16:43:59.892Z,3.13
2022-12-04T16:45:03.643Z,3.15
2022-12-04T16:46:07.257Z,3.08
2022-12-04T16:47:15.007Z,3.17
2022-12-04T16:48:18.379Z,3.18